Time;durP1;ratioP1;P1;durP2;ratioP2;P2;SDS_P1;SDS_P2;PMS_P1;PMS_P2;Temp;Humidity;BMP_temperature;BMP_pressure;BME280_temperature;BME280_humidity;BME280_pressure;Samples;Min_cycle;Max_cycle;Signal;HPM_P1;HPM_P2
2021/06/30 00:00:34;;;;;;;6.20;5.90;;;16.20;99.90;;;;;;4972243;28;20815;-64
2021/06/30 00:03:01;;;;;;;6.23;5.93;;;16.20;99.90;;;;;;4973136;28;20459;-64
2021/06/30 00:05:29;;;;;;;6.60;6.23;;;16.20;99.90;;;;;;4973231;28;20475;-67
2021/06/30 00:07:56;;;;;;;6.80;6.40;;;16.20;99.90;;;;;;4973067;28;20448;-64
2021/06/30 00:10:22;;;;;;;7.00;6.60;;;16.20;99.90;;;;;;4973130;28;20542;-65
2021/06/30 00:12:49;;;;;;;7.00;6.60;;;16.20;99.90;;;;;;4972916;28;20447;-66
2021/06/30 00:15:19;;;;;;;6.20;5.90;;;16.20;99.90;;;;;;4973014;28;20479;-66
2021/06/30 00:17:47;;;;;;;5.60;5.40;;;16.20;99.90;;;;;;4973168;28;20825;-66
2021/06/30 00:20:14;;;;;;;6.97;6.47;;;16.30;99.90;;;;;;4972924;28;20799;-66
2021/06/30 00:22:43;;;;;;;6.50;6.20;;;16.30;99.90;;;;;;4972851;28;20466;-65
2021/06/30 00:25:11;;;;;;;5.70;5.40;;;16.30;99.90;;;;;;4972883;28;20476;-65
2021/06/30 00:27:37;;;;;;;6.53;6.00;;;16.40;99.90;;;;;;4972854;28;20544;-65
2021/06/30 00:30:05;;;;;;;6.93;6.63;;;16.30;99.90;;;;;;4972900;28;20450;-65
2021/06/30 00:32:32;;;;;;;7.70;7.40;;;16.30;99.90;;;;;;4972659;28;20444;-65
2021/06/30 00:34:59;;;;;;;7.27;6.90;;;16.20;99.90;;;;;;4972653;28;20467;-65
2021/06/30 00:37:25;;;;;;;7.53;7.10;;;16.20;99.90;;;;;;4972821;28;20455;-65
2021/06/30 00:39:53;;;;;;;7.70;7.30;;;16.10;99.90;;;;;;4972327;28;20850;-65
2021/06/30 00:42:20;;;;;;;8.00;7.30;;;16.00;99.90;;;;;;4972310;28;20443;-65
2021/06/30 00:44:47;;;;;;;8.00;7.40;;;16.00;99.90;;;;;;4972491;28;20480;-65
2021/06/30 00:47:14;;;;;;;8.10;7.70;;;15.90;99.90;;;;;;4972656;28;20470;-65
2021/06/30 00:49:40;;;;;;;7.53;7.13;;;15.80;99.90;;;;;;4972618;28;20444;-65
2021/06/30 00:52:08;;;;;;;8.83;8.17;;;15.80;99.90;;;;;;4972473;28;20455;-65
2021/06/30 00:54:34;;;;;;;7.67;7.20;;;15.80;99.90;;;;;;4972630;28;20478;-65
2021/06/30 00:57:03;;;;;;;8.20;7.60;;;15.80;99.90;;;;;;4972506;28;20447;-65
2021/06/30 00:59:30;;;;;;;8.50;7.90;;;15.80;99.90;;;;;;4972469;28;20487;-64
2021/06/30 01:01:57;;;;;;;9.63;9.03;;;15.70;99.90;;;;;;4972333;28;20444;-65
2021/06/30 01:04:23;;;;;;;8.03;7.43;;;15.80;99.90;;;;;;4972442;28;20459;-65
2021/06/30 01:06:50;;;;;;;8.90;8.30;;;15.80;99.90;;;;;;4972513;28;20514;-64
2021/06/30 01:09:17;;;;;;;8.90;7.63;;;15.80;99.90;;;;;;4972334;28;20950;-64
2021/06/30 01:11:43;;;;;;;9.70;8.70;;;15.80;99.90;;;;;;4975821;28;20450;-65
2021/06/30 01:14:12;;;;;;;9.17;8.57;;;15.80;99.90;;;;;;4976192;28;20993;-65
2021/06/30 01:16:38;;;;;;;10.90;10.03;;;15.80;99.90;;;;;;4976175;28;20448;-64
2021/06/30 01:19:05;;;;;;;9.63;8.73;;;15.80;99.90;;;;;;4976068;28;20479;-64
2021/06/30 01:21:32;;;;;;;10.47;8.30;;;15.90;99.90;;;;;;4975969;28;20531;-64
2021/06/30 01:24:00;;;;;;;8.97;8.17;;;15.90;99.90;;;;;;4976131;28;20474;-64
2021/06/30 01:26:26;;;;;;;10.10;8.70;;;15.90;99.90;;;;;;4976213;28;20454;-64
2021/06/30 01:28:53;;;;;;;10.57;9.67;;;15.80;99.90;;;;;;4975975;28;20447;-65
2021/06/30 01:31:20;;;;;;;15.13;8.83;;;15.80;99.90;;;;;;4975750;28;21016;-64
2021/06/30 01:33:46;;;;;;;11.17;9.47;;;15.80;99.90;;;;;;4975801;28;20452;-65
2021/06/30 01:36:13;;;;;;;10.83;10.03;;;15.80;99.90;;;;;;4975891;28;20448;-64
2021/06/30 01:38:40;;;;;;;11.07;9.97;;;15.80;99.90;;;;;;4975701;28;20483;-64
2021/06/30 01:41:08;;;;;;;11.60;10.70;;;15.80;99.90;;;;;;4975715;28;20532;-64
2021/06/30 01:43:35;;;;;;;11.27;10.30;;;15.80;99.90;;;;;;4975702;28;20450;-64
2021/06/30 01:46:01;;;;;;;12.93;11.60;;;15.80;99.90;;;;;;4975690;28;20486;-65
2021/06/30 01:48:28;;;;;;;10.90;9.90;;;15.90;99.90;;;;;;4975778;28;20450;-64
2021/06/30 01:50:55;;;;;;;13.00;11.23;;;15.90;99.90;;;;;;4976265;28;20452;-64
2021/06/30 01:53:21;;;;;;;12.83;11.07;;;16.00;99.90;;;;;;4975610;28;20474;-64
2021/06/30 01:55:49;;;;;;;12.33;10.87;;;16.00;99.90;;;;;;4975452;28;20475;-65
2021/06/30 01:58:22;;;;;;;12.00;10.90;;;16.00;99.90;;;;;;4975465;28;20494;-65
2021/06/30 02:00:54;;;;;;;12.90;11.70;;;16.00;99.90;;;;;;4975482;28;20439;-65
2021/06/30 02:03:21;;;;;;;11.73;10.53;;;16.00;99.90;;;;;;4975199;28;20455;-65
2021/06/30 02:05:48;;;;;;;10.40;9.60;;;16.00;99.90;;;;;;4975342;28;20463;-65
2021/06/30 02:08:17;;;;;;;11.00;10.00;;;16.00;99.90;;;;;;4975309;28;20984;-64
2021/06/30 02:10:44;;;;;;;11.40;10.40;;;16.00;99.90;;;;;;4975326;28;20921;-64
2021/06/30 02:13:11;;;;;;;10.77;9.93;;;15.90;99.90;;;;;;4975040;28;20495;-64
2021/06/30 02:15:41;;;;;;;12.13;10.83;;;15.90;99.90;;;;;;4975135;28;20487;-64
2021/06/30 02:18:08;;;;;;;12.43;11.37;;;15.80;99.90;;;;;;4975190;28;20448;-64
2021/06/30 02:20:36;;;;;;;11.30;10.33;;;15.80;99.90;;;;;;4974957;28;20837;-64
2021/06/30 02:23:03;;;;;;;12.13;11.00;;;15.80;99.90;;;;;;4974094;28;20455;-64
2021/06/30 02:25:32;;;;;;;13.10;12.00;;;15.80;99.90;;;;;;4974965;28;20988;-64
2021/06/30 02:27:59;;;;;;;10.70;9.87;;;15.80;99.90;;;;;;4975207;28;20876;-64
2021/06/30 02:30:30;;;;;;;12.40;11.20;;;15.70;99.90;;;;;;4975033;28;20469;-64
2021/06/30 02:33:01;;;;;;;13.47;11.53;;;15.70;99.90;;;;;;4974798;28;20451;-64
2021/06/30 02:35:28;;;;;;;11.60;10.57;;;15.70;99.90;;;;;;4974931;28;20468;-65
2021/06/30 02:37:57;;;;;;;12.20;11.20;;;15.70;99.90;;;;;;4974810;28;20825;-64
2021/06/30 02:40:25;;;;;;;15.27;10.97;;;15.70;99.90;;;;;;4974378;28;20483;-64
2021/06/30 02:42:53;;;;;;;13.43;11.60;;;15.90;99.90;;;;;;4974553;28;20448;-64
2021/06/30 02:45:21;;;;;;;12.60;11.50;;;15.90;99.90;;;;;;4974483;28;20486;-65
2021/06/30 02:47:49;;;;;;;15.10;12.00;;;15.90;99.90;;;;;;4974701;28;20455;-64
2021/06/30 02:50:19;;;;;;;11.73;10.53;;;16.00;99.90;;;;;;4974522;28;20451;-64
2021/06/30 02:52:47;;;;;;;12.77;9.43;;;16.00;99.90;;;;;;4974415;28;20444;-65
2021/06/30 02:55:15;;;;;;;12.30;10.80;;;16.10;99.90;;;;;;4974402;28;20837;-64
2021/06/30 02:57:43;;;;;;;9.07;8.50;;;16.10;99.90;;;;;;4974411;28;20448;-64
2021/06/30 03:00:12;;;;;;;9.77;9.07;;;16.10;99.90;;;;;;4974334;28;20495;-64
2021/06/30 03:02:40;;;;;;;9.53;8.80;;;16.10;99.90;;;;;;4974115;28;20454;-64
2021/06/30 03:05:08;;;;;;;9.77;9.17;;;16.20;99.90;;;;;;4974252;28;20471;-64
2021/06/30 03:07:37;;;;;;;8.53;7.90;;;16.20;99.90;;;;;;4974156;28;20477;-64
2021/06/30 03:10:06;;;;;;;9.60;8.70;;;16.20;99.90;;;;;;4974212;28;20451;-64
2021/06/30 03:12:33;;;;;;;12.37;10.20;;;16.30;99.90;;;;;;4974144;28;20452;-64
2021/06/30 03:15:00;;;;;;;9.40;8.67;;;16.30;99.90;;;;;;4974068;28;20468;-64
2021/06/30 03:17:26;;;;;;;10.63;9.90;;;16.30;99.90;;;;;;4974068;28;21058;-64
2021/06/30 03:19:53;;;;;;;10.97;9.87;;;16.30;99.90;;;;;;4973676;28;20510;-64
2021/06/30 03:22:20;;;;;;;10.20;9.30;;;16.40;99.90;;;;;;4973672;28;20930;-64
2021/06/30 03:24:48;;;;;;;12.10;10.93;;;16.40;99.90;;;;;;4973985;28;20522;-64
2021/06/30 03:27:16;;;;;;;11.00;10.27;;;16.40;99.90;;;;;;4973832;28;20443;-64
2021/06/30 03:29:42;;;;;;;12.70;11.90;;;16.40;99.90;;;;;;4973942;28;20448;-64
2021/06/30 03:32:09;;;;;;;11.47;10.73;;;16.50;99.90;;;;;;4973572;28;20451;-64
2021/06/30 03:34:36;;;;;;;12.20;11.30;;;16.50;99.90;;;;;;4973584;28;20474;-64
2021/06/30 03:37:03;;;;;;;12.17;11.00;;;16.40;99.90;;;;;;4973393;28;20460;-64
2021/06/30 03:39:30;;;;;;;10.87;9.83;;;16.40;99.90;;;;;;4973635;28;20486;-64
2021/06/30 03:41:58;;;;;;;11.33;10.63;;;16.40;99.90;;;;;;4973640;28;20452;-64
2021/06/30 03:44:24;;;;;;;11.70;10.80;;;16.40;99.90;;;;;;4973663;28;20482;-64
2021/06/30 03:46:51;;;;;;;10.53;9.83;;;16.40;99.90;;;;;;4973769;28;20448;-64
2021/06/30 03:49:18;;;;;;;10.83;10.13;;;16.50;99.90;;;;;;4973723;28;20451;-64
2021/06/30 03:51:45;;;;;;;10.17;9.47;;;16.60;99.90;;;;;;4973531;28;20454;-64
2021/06/30 03:54:11;;;;;;;9.90;9.10;;;16.60;99.90;;;;;;4973540;28;20474;-64
2021/06/30 03:56:38;;;;;;;11.03;9.93;;;16.70;99.90;;;;;;4973645;28;20455;-64
2021/06/30 03:59:06;;;;;;;9.60;9.10;;;16.70;99.90;;;;;;4973102;28;20443;-64
2021/06/30 04:01:33;;;;;;;9.50;9.10;;;16.70;99.90;;;;;;4973387;28;20815;-64
2021/06/30 04:04:01;;;;;;;9.50;9.00;;;16.70;99.90;;;;;;4973449;28;20856;-64
2021/06/30 04:06:28;;;;;;;10.27;9.53;;;16.70;99.90;;;;;;4973547;28;20510;-64
2021/06/30 04:08:55;;;;;;;10.17;9.37;;;16.70;99.90;;;;;;4971787;28;20456;-64
2021/06/30 04:11:21;;;;;;;9.40;8.90;;;16.70;99.90;;;;;;4971966;28;20448;-64
2021/06/30 04:13:48;;;;;;;8.70;8.40;;;16.70;99.90;;;;;;4973248;28;20460;-65
2021/06/30 04:16:16;;;;;;;9.73;9.33;;;16.70;99.90;;;;;;4973415;28;20444;-66
2021/06/30 04:18:43;;;;;;;9.50;8.97;;;16.70;99.90;;;;;;4973065;28;20450;-65
2021/06/30 04:21:09;;;;;;;10.50;9.77;;;16.70;99.90;;;;;;4972786;28;20483;-65
2021/06/30 04:23:36;;;;;;;9.50;9.10;;;16.70;99.90;;;;;;4972925;28;20455;-65
2021/06/30 04:26:03;;;;;;;10.43;9.80;;;16.70;99.90;;;;;;4973073;28;20479;-65
2021/06/30 04:28:30;;;;;;;9.27;8.87;;;16.70;99.90;;;;;;4972939;28;20451;-65
2021/06/30 04:30:57;;;;;;;10.93;10.23;;;16.70;99.90;;;;;;4973067;28;20444;-65
2021/06/30 04:33:25;;;;;;;9.63;8.93;;;16.80;99.90;;;;;;4972983;28;20754;-65
2021/06/30 04:35:52;;;;;;;9.97;9.47;;;16.80;99.90;;;;;;4972941;28;20491;-65
2021/06/30 04:38:20;;;;;;;10.20;9.30;;;16.90;99.90;;;;;;4972865;28;20448;-65
2021/06/30 04:40:46;;;;;;;10.20;9.70;;;16.90;99.90;;;;;;4972828;28;20832;-65
2021/06/30 04:43:13;;;;;;;11.27;10.67;;;17.00;99.90;;;;;;4972312;28;20479;-65
2021/06/30 04:45:40;;;;;;;9.93;9.53;;;17.00;99.90;;;;;;4972078;28;20480;-65
2021/06/30 04:48:06;;;;;;;10.27;9.60;;;17.10;99.90;;;;;;4972865;28;20452;-65
2021/06/30 04:50:34;;;;;;;10.93;9.93;;;17.10;99.90;;;;;;4972875;28;20498;-65
2021/06/30 04:53:01;;;;;;;10.07;9.57;;;17.30;99.90;;;;;;4972608;28;20443;-65
2021/06/30 04:55:28;;;;;;;10.73;10.13;;;17.30;99.90;;;;;;4972713;28;20965;-65
2021/06/30 04:57:54;;;;;;;12.23;11.47;;;17.50;99.90;;;;;;4972776;28;20964;-65
2021/06/30 05:00:21;;;;;;;11.13;10.63;;;17.50;99.90;;;;;;4972492;28;20487;-65
2021/06/30 05:02:48;;;;;;;10.97;10.53;;;17.60;99.90;;;;;;4972639;28;20845;-65
2021/06/30 05:05:15;;;;;;;11.60;11.20;;;17.70;99.90;;;;;;4972785;28;20487;-65
2021/06/30 05:07:43;;;;;;;12.67;11.97;;;17.80;99.90;;;;;;4972734;28;20444;-65
2021/06/30 05:10:10;;;;;;;13.07;12.30;;;17.90;99.90;;;;;;4972625;28;20444;-65
2021/06/30 05:12:37;;;;;;;12.93;12.43;;;18.10;99.90;;;;;;4972434;28;20455;-65
2021/06/30 05:15:04;;;;;;;12.63;12.13;;;18.20;99.90;;;;;;4972509;28;20988;-65
2021/06/30 05:17:30;;;;;;;15.53;14.43;;;18.40;99.90;;;;;;4972671;28;20443;-65
2021/06/30 05:19:57;;;;;;;14.00;13.40;;;18.50;99.90;;;;;;4972386;28;20488;-65
2021/06/30 05:22:24;;;;;;;15.07;14.23;;;18.60;99.90;;;;;;4972329;28;20455;-65
2021/06/30 05:24:52;;;;;;;15.10;14.20;;;18.70;99.90;;;;;;4972358;28;20995;-65
2021/06/30 05:27:18;;;;;;;15.07;14.10;;;18.80;99.90;;;;;;4972600;28;20447;-65
2021/06/30 05:29:45;;;;;;;15.67;14.77;;;18.90;99.90;;;;;;4972315;28;20451;-65
2021/06/30 05:32:12;;;;;;;14.67;13.87;;;18.90;99.90;;;;;;4972148;28;20454;-65
2021/06/30 05:34:38;;;;;;;15.20;14.50;;;19.10;99.90;;;;;;4972197;28;20475;-65
2021/06/30 05:37:05;;;;;;;17.10;16.23;;;19.10;99.90;;;;;;4972279;28;20443;-65
2021/06/30 05:39:32;;;;;;;17.10;16.20;;;19.10;99.90;;;;;;4972324;28;20458;-65
2021/06/30 05:42:00;;;;;;;17.47;15.80;;;19.10;99.90;;;;;;4972134;28;20447;-65
2021/06/30 05:44:26;;;;;;;17.10;16.30;;;19.20;99.90;;;;;;5027611;23;20482;-61
2021/06/30 05:46:53;;;;;;;17.27;16.27;;;19.30;99.90;;;;;;4989710;28;20457;-62
2021/06/30 05:49:20;;;;;;;18.63;17.63;;;19.30;99.90;;;;;;4972202;28;20448;-60
2021/06/30 05:51:47;;;;;;;18.83;17.50;;;19.20;99.90;;;;;;4972017;28;20451;-62
2021/06/30 05:54:13;;;;;;;17.83;16.93;;;19.10;99.90;;;;;;4972171;28;20443;-62
2021/06/30 05:56:40;;;;;;;18.83;17.60;;;18.90;99.90;;;;;;4972383;28;20462;-62
2021/06/30 05:59:08;;;;;;;18.40;17.20;;;19.00;99.90;;;;;;4975740;28;20917;-61
2021/06/30 06:01:35;;;;;;;19.07;17.90;;;18.90;99.90;;;;;;4975377;28;20555;-60
2021/06/30 06:04:02;;;;;;;17.57;16.70;;;19.00;99.90;;;;;;4975577;28;20454;-61
2021/06/30 06:06:28;;;;;;;17.23;16.10;;;19.00;99.90;;;;;;4975446;28;20468;-62
2021/06/30 06:08:55;;;;;;;18.40;17.30;;;19.00;99.90;;;;;;4975482;28;20450;-60
2021/06/30 06:11:23;;;;;;;17.30;16.50;;;18.90;99.90;;;;;;4975229;28;20440;-60
2021/06/30 06:13:50;;;;;;;17.57;16.77;;;18.90;99.90;;;;;;4975442;28;20444;-59
2021/06/30 06:16:21;;;;;;;17.70;16.63;;;19.00;99.90;;;;;;4975261;28;20530;-61
2021/06/30 06:18:47;;;;;;;17.60;16.80;;;19.10;99.90;;;;;;4975231;28;20506;-62
2021/06/30 06:21:14;;;;;;;17.90;16.73;;;19.20;99.90;;;;;;4975055;28;21012;-62
2021/06/30 06:23:41;;;;;;;17.90;17.00;;;19.30;99.90;;;;;;4975094;28;20475;-63
2021/06/30 06:26:09;;;;;;;17.47;16.30;;;19.30;99.90;;;;;;4975190;28;20976;-62
2021/06/30 06:28:36;;;;;;;16.70;15.97;;;19.40;99.90;;;;;;4975085;28;20514;-62
2021/06/30 06:31:05;;;;;;;17.97;16.83;;;19.30;99.90;;;;;;4974839;28;20465;-64
2021/06/30 06:33:33;;;;;;;17.07;16.27;;;19.50;99.90;;;;;;4974943;28;20452;-63
2021/06/30 06:36:00;;;;;;;17.63;16.73;;;19.50;99.90;;;;;;4974941;28;20470;-61
2021/06/30 06:38:27;;;;;;;18.20;17.20;;;19.60;99.90;;;;;;4975156;28;20444;-60
2021/06/30 06:40:54;;;;;;;17.10;16.40;;;19.70;99.90;;;;;;4974854;28;20484;-62
2021/06/30 06:43:20;;;;;;;18.77;17.73;;;19.80;99.90;;;;;;4974638;28;20910;-60
2021/06/30 06:45:47;;;;;;;17.40;16.60;;;19.80;99.90;;;;;;4974619;28;20490;-60
2021/06/30 06:48:14;;;;;;;17.97;17.20;;;19.80;99.90;;;;;;4974738;28;20951;-60
2021/06/30 06:50:42;;;;;;;18.93;18.13;;;19.90;99.90;;;;;;4974589;28;20448;-62
2021/06/30 06:53:08;;;;;;;19.23;18.03;;;19.90;99.90;;;;;;4974413;28;20822;-62
2021/06/30 06:55:35;;;;;;;19.23;18.43;;;19.90;99.90;;;;;;4974479;28;20825;-60
2021/06/30 06:58:02;;;;;;;18.60;17.70;;;19.90;99.90;;;;;;4974829;28;20903;-61
2021/06/30 07:00:29;;;;;;;18.90;18.00;;;20.00;99.90;;;;;;4974423;28;20502;-62
2021/06/30 07:02:55;;;;;;;19.20;18.30;;;20.00;99.90;;;;;;4974273;28;20476;-62
2021/06/30 07:05:22;;;;;;;19.03;18.20;;;20.00;99.90;;;;;;4974432;28;20463;-62
2021/06/30 07:07:50;;;;;;;19.37;18.47;;;19.80;99.90;;;;;;4973975;28;20471;-62
2021/06/30 07:10:17;;;;;;;18.77;18.07;;;19.60;99.90;;;;;;4974245;28;20946;-62
2021/06/30 07:12:44;;;;;;;19.33;18.43;;;19.80;99.90;;;;;;4974157;28;20949;-60
2021/06/30 07:15:11;;;;;;;18.50;17.80;;;20.00;99.90;;;;;;4974246;28;20472;-60
2021/06/30 07:17:39;;;;;;;19.67;18.77;;;20.10;99.90;;;;;;4974265;28;20458;-62
2021/06/30 07:20:07;;;;;;;19.10;17.83;;;20.20;99.90;;;;;;4974018;28;20937;-62
2021/06/30 07:22:34;;;;;;;18.80;18.10;;;20.10;99.90;;;;;;4973444;28;20456;-60
2021/06/30 07:25:03;;;;;;;19.33;18.53;;;20.00;99.90;;;;;;4974064;28;20467;-60
2021/06/30 07:27:29;;;;;;;18.37;17.67;;;19.90;99.90;;;;;;4974164;28;20455;-60
2021/06/30 07:29:56;;;;;;;18.17;17.47;;;19.80;99.90;;;;;;4974099;28;20443;-62
2021/06/30 07:32:23;;;;;;;19.27;18.47;;;19.60;99.90;;;;;;4973610;28;20571;-60
2021/06/30 07:34:49;;;;;;;19.57;18.67;;;19.70;99.90;;;;;;4973836;28;20463;-59
2021/06/30 07:37:16;;;;;;;18.70;17.90;;;19.80;99.90;;;;;;4973936;28;20451;-62
2021/06/30 07:39:43;;;;;;;18.43;17.63;;;19.90;99.90;;;;;;4973850;28;20444;-62
2021/06/30 07:42:11;;;;;;;18.00;17.30;;;19.90;99.90;;;;;;4973509;28;20554;-60
2021/06/30 07:44:38;;;;;;;18.03;17.20;;;20.10;99.90;;;;;;4973501;28;20476;-60
2021/06/30 07:47:06;;;;;;;18.43;17.73;;;20.70;99.90;;;;;;4973844;28;20454;-60
2021/06/30 07:49:33;;;;;;;18.00;17.20;;;20.90;99.90;;;;;;4973644;28;20510;-59
2021/06/30 07:52:00;;;;;;;18.13;17.43;;;21.30;99.90;;;;;;4973402;28;20940;-60
2021/06/30 07:54:26;;;;;;;17.40;16.70;;;21.60;99.90;;;;;;4973549;28;20436;-60
2021/06/30 07:56:53;;;;;;;17.60;17.00;;;21.80;99.90;;;;;;4973493;28;20449;-62
2021/06/30 07:59:21;;;;;;;18.17;17.47;;;22.10;99.90;;;;;;4973493;28;20933;-61
2021/06/30 08:01:48;;;;;;;18.03;17.43;;;22.40;99.90;;;;;;4973116;28;20491;-62
2021/06/30 08:04:14;;;;;;;17.80;17.00;;;22.40;99.90;;;;;;4973243;28;20435;-61
2021/06/30 08:06:41;;;;;;;17.70;17.10;;;22.50;99.90;;;;;;4973282;28;20443;-60
2021/06/30 08:09:08;;;;;;;18.63;17.83;;;22.80;99.90;;;;;;4973315;28;20545;-60
2021/06/30 08:11:35;;;;;;;18.90;18.20;;;22.60;99.90;;;;;;4972995;28;20452;-62
2021/06/30 08:14:02;;;;;;;18.07;17.33;;;22.20;99.90;;;;;;4973306;28;20818;-59
2021/06/30 08:16:30;;;;;;;18.67;17.77;;;22.10;99.90;;;;;;4973123;28;20471;-62
2021/06/30 08:18:57;;;;;;;18.23;17.53;;;21.90;99.90;;;;;;4972946;28;20458;-60
2021/06/30 08:21:24;;;;;;;17.67;17.07;;;21.70;99.90;;;;;;4972530;28;20479;-60
2021/06/30 08:23:51;;;;;;;18.00;17.30;;;21.70;99.90;;;;;;4973043;28;20996;-61
2021/06/30 08:26:18;;;;;;;17.50;16.90;;;21.90;99.90;;;;;;4972897;28;20468;-62
2021/06/30 08:28:45;;;;;;;17.33;16.73;;;21.80;99.90;;;;;;4973027;28;20961;-58
2021/06/30 08:31:12;;;;;;;18.00;17.20;;;21.40;99.90;;;;;;4972952;28;20945;-61
2021/06/30 08:33:40;;;;;;;17.50;16.80;;;21.50;99.90;;;;;;4972788;28;20440;-61
2021/06/30 08:36:07;;;;;;;16.73;16.13;;;21.60;99.90;;;;;;4972893;28;20502;-60
2021/06/30 08:38:33;;;;;;;17.03;16.43;;;21.50;99.90;;;;;;4972948;28;20451;-62
2021/06/30 08:41:01;;;;;;;17.20;16.50;;;21.60;99.90;;;;;;4972725;28;20845;-60
2021/06/30 08:43:28;;;;;;;17.20;16.60;;;21.80;99.90;;;;;;4972846;28;20452;-63
2021/06/30 08:45:54;;;;;;;17.37;16.77;;;21.80;99.90;;;;;;4972584;28;20499;-59
2021/06/30 08:48:21;;;;;;;18.30;17.70;;;21.40;99.90;;;;;;4972733;28;20812;-61
2021/06/30 08:50:52;;;;;;;17.40;16.80;;;21.30;99.90;;;;;;4972850;28;20456;-62
2021/06/30 08:53:21;;;;;;;19.50;18.10;;;21.40;99.90;;;;;;4972602;28;20444;-61
2021/06/30 08:55:48;;;;;;;17.70;17.10;;;21.40;99.90;;;;;;4972636;28;20973;-60
2021/06/30 08:58:15;;;;;;;18.20;17.50;;;21.50;99.90;;;;;;4972702;28;20455;-62
2021/06/30 09:00:43;;;;;;;19.40;18.50;;;22.00;99.90;;;;;;4972562;28;20447;-60
2021/06/30 09:03:14;;;;;;;18.00;17.30;;;22.50;99.90;;;;;;4972488;28;20447;-60
2021/06/30 09:09:01;;;;;;;17.93;17.10;;;22.70;99.90;;;;;;4931949;29;20457;-60
2021/06/30 09:11:30;;;;;;;18.40;17.70;;;22.60;99.90;;;;;;4931664;29;20433;-60
2021/06/30 09:14:20;;;;;;;17.80;17.20;;;22.30;99.90;;;;;;4955759;28;20455;-60
2021/06/30 09:17:00;;;;;;;17.90;17.30;;;22.00;99.90;;;;;;4972413;28;20452;-62
2021/06/30 09:20:06;;;;;;;17.63;17.03;;;22.30;99.90;;;;;;4972516;28;20534;-62
2021/06/30 09:22:41;;;;;;;18.33;17.73;;;22.90;99.90;;;;;;4931464;29;20988;-61
2021/06/30 09:25:09;;;;;;;19.00;18.10;;;23.20;99.90;;;;;;4931610;29;20492;-62
2021/06/30 09:27:42;;;;;;;18.13;17.43;;;22.90;99.90;;;;;;4953760;28;20447;-60
2021/06/30 09:30:12;;;;;;;17.80;17.10;;;22.50;99.90;;;;;;4972551;28;20444;-61
2021/06/30 09:33:00;;;;;;;17.80;17.13;;;22.00;99.90;;;;;;4975541;28;20447;-61
2021/06/30 09:35:30;;;;;;;18.07;17.37;;;21.80;99.90;;;;;;4976073;28;20463;-60
2021/06/30 09:37:58;;;;;;;17.43;16.83;;;21.70;99.90;;;;;;4976062;28;20541;-62
2021/06/30 09:40:45;;;;;;;17.03;16.33;;;21.70;99.90;;;;;;4976290;28;20447;-62
2021/06/30 09:43:35;;;;;;;16.73;16.10;;;21.10;99.90;;;;;;4975876;28;20443;-58
2021/06/30 09:46:16;;;;;;;16.83;16.23;;;20.60;99.90;;;;;;4965508;28;20491;-61
2021/06/30 09:48:43;;;;;;;17.50;16.60;;;20.40;99.90;;;;;;4975927;28;20443;-60
2021/06/30 09:51:17;;;;;;;17.53;16.63;;;20.30;99.90;;;;;;4975713;28;20451;-59
2021/06/30 09:53:44;;;;;;;17.73;17.03;;;20.10;99.90;;;;;;4975868;28;20447;-60
2021/06/30 09:56:14;;;;;;;17.00;16.40;;;20.00;99.90;;;;;;4975693;28;20467;-62
2021/06/30 09:58:42;;;;;;;17.30;16.60;;;20.00;99.90;;;;;;4975791;28;20812;-60
2021/06/30 10:01:17;;;;;;;17.27;16.57;;;20.10;99.90;;;;;;4975404;28;20447;-59
2021/06/30 10:03:44;;;;;;;21.20;17.93;;;20.10;99.90;;;;;;4975593;28;20482;-61
2021/06/30 10:06:29;;;;;;;17.10;16.50;;;20.30;99.90;;;;;;4975391;28;21003;-58
2021/06/30 10:08:57;;;;;;;17.47;16.87;;;20.60;99.90;;;;;;4975438;28;20446;-62
2021/06/30 10:11:25;;;;;;;17.97;17.20;;;20.80;99.90;;;;;;4975326;28;20576;-62
2021/06/30 10:13:52;;;;;;;17.50;16.80;;;21.20;99.90;;;;;;4975443;28;20817;-60
2021/06/30 10:16:20;;;;;;;17.53;16.83;;;21.40;99.90;;;;;;4975269;28;20468;-60
2021/06/30 10:18:50;;;;;;;18.40;17.70;;;21.40;99.90;;;;;;4975373;28;20487;-61
2021/06/30 10:21:18;;;;;;;18.70;17.90;;;21.70;99.90;;;;;;4975086;28;20444;-61
2021/06/30 10:23:45;;;;;;;18.73;17.93;;;21.60;99.90;;;;;;4975166;28;20964;-62
2021/06/30 10:26:12;;;;;;;19.57;18.63;;;22.10;99.90;;;;;;4975230;28;20476;-63
2021/06/30 10:28:41;;;;;;;19.47;18.37;;;22.30;99.90;;;;;;4975128;28;20864;-59
2021/06/30 10:31:08;;;;;;;18.60;17.87;;;22.10;99.90;;;;;;4974845;28;20822;-60
2021/06/30 10:33:38;;;;;;;19.40;18.50;;;22.10;99.90;;;;;;4974954;28;20904;-61
2021/06/30 10:36:06;;;;;;;19.23;18.37;;;22.10;99.90;;;;;;4974958;28;20479;-60
2021/06/30 10:38:54;;;;;;;19.00;18.20;;;22.20;99.90;;;;;;4975049;28;20451;-62
2021/06/30 10:41:37;;;;;;;18.40;17.70;;;22.50;99.90;;;;;;4974663;28;20456;-62
2021/06/30 10:44:15;;;;;;;18.00;17.40;;;22.90;99.90;;;;;;4974014;28;20448;-60
2021/06/30 10:46:42;;;;;;;19.60;18.80;;;23.20;99.90;;;;;;4974608;28;20514;-60
2021/06/30 10:49:29;;;;;;;17.90;17.30;;;23.30;98.80;;;;;;4974887;28;20447;-60
2021/06/30 10:51:59;;;;;;;17.93;17.23;;;23.60;97.30;;;;;;4974483;28;20451;-62
2021/06/30 10:54:46;;;;;;;17.60;17.00;;;23.70;96.90;;;;;;4974729;28;20454;-62
2021/06/30 10:57:28;;;;;;;17.60;17.00;;;23.70;96.40;;;;;;4974555;28;20456;-60
2021/06/30 11:00:18;;;;;;;18.30;17.70;;;24.10;96.40;;;;;;4974607;28;20444;-61
2021/06/30 11:02:45;;;;;;;19.80;19.10;;;24.70;95.30;;;;;;4974343;28;20488;-60
2021/06/30 11:05:32;;;;;;;19.97;19.17;;;24.80;93.70;;;;;;4974636;28;20845;-62
2021/06/30 11:07:59;;;;;;;21.10;20.10;;;24.90;93.10;;;;;;4974525;28;20902;-62
2021/06/30 11:10:49;;;;;;;20.03;19.33;;;24.80;92.70;;;;;;4974456;28;20452;-63
2021/06/30 11:13:15;;;;;;;19.67;18.87;;;25.00;92.30;;;;;;4974123;28;20530;-62
2021/06/30 11:15:44;;;;;;;19.80;19.00;;;24.90;91.00;;;;;;4974201;28;20476;-63
2021/06/30 11:18:50;;;;;;;19.60;18.83;;;24.80;90.70;;;;;;4974246;28;20458;-60
2021/06/30 11:21:17;;;;;;;19.47;18.70;;;24.40;91.20;;;;;;4970553;28;20459;-60
2021/06/30 11:23:44;;;;;;;18.93;18.23;;;24.10;91.90;;;;;;4974020;28;20439;-60
2021/06/30 11:26:33;;;;;;;19.80;19.00;;;23.50;93.40;;;;;;4974113;28;20463;-59
2021/06/30 11:29:00;;;;;;;19.93;18.93;;;22.80;95.80;;;;;;4974174;28;20511;-61
2021/06/30 11:31:46;;;;;;;17.60;17.00;;;22.40;97.30;;;;;;4973864;28;20451;-60
2021/06/30 11:34:22;;;;;;;16.67;16.07;;;22.20;99.10;;;;;;4974009;28;20455;-59
2021/06/30 11:36:49;;;;;;;17.97;17.37;;;22.20;99.70;;;;;;4974048;28;20798;-60
2021/06/30 11:39:19;;;;;;;17.43;16.87;;;22.00;99.90;;;;;;4973720;28;20447;-62
2021/06/30 11:41:47;;;;;;;17.30;16.60;;;21.90;99.90;;;;;;4973562;28;20480;-62
2021/06/30 11:44:15;;;;;;;16.67;16.17;;;22.00;99.90;;;;;;4973635;28;20806;-59
2021/06/30 11:46:43;;;;;;;17.50;16.90;;;22.20;99.90;;;;;;4974267;28;20783;-60
2021/06/30 11:49:17;;;;;;;16.30;15.80;;;22.00;99.90;;;;;;4973669;28;20448;-62
2021/06/30 11:51:44;;;;;;;17.00;16.40;;;22.00;99.90;;;;;;4973442;28;20448;-59
2021/06/30 11:54:14;;;;;;;17.23;16.63;;;22.10;99.90;;;;;;4973605;28;20451;-61
2021/06/30 11:56:42;;;;;;;17.30;16.60;;;22.20;99.40;;;;;;4973549;28;20448;-60
2021/06/30 11:59:17;;;;;;;17.50;16.90;;;22.20;99.90;;;;;;4973475;28;20455;-60
2021/06/30 12:01:44;;;;;;;17.57;16.97;;;22.30;99.90;;;;;;4973339;28;20443;-59
2021/06/30 12:04:21;;;;;;;17.10;16.40;;;22.20;99.90;;;;;;4973363;28;20443;-62
2021/06/30 12:06:50;;;;;;;17.27;16.67;;;21.90;99.90;;;;;;4973447;28;20483;-61
2021/06/30 12:09:19;;;;;;;17.97;17.37;;;21.80;99.90;;;;;;4973164;28;20451;-63
2021/06/30 12:11:51;;;;;;;17.67;17.07;;;21.90;99.90;;;;;;4973139;28;20538;-60
2021/06/30 12:14:21;;;;;;;17.90;17.10;;;21.50;99.90;;;;;;4973102;28;20452;-62
2021/06/30 12:16:51;;;;;;;18.33;17.53;;;21.50;99.90;;;;;;4973223;28;20455;-61
2021/06/30 12:19:21;;;;;;;18.10;17.50;;;21.40;99.90;;;;;;4973144;28;20447;-59
2021/06/30 12:21:50;;;;;;;17.90;17.30;;;21.20;99.90;;;;;;4972807;28;20448;-62
2021/06/30 12:24:21;;;;;;;19.40;18.50;;;21.10;99.90;;;;;;4972816;28;20462;-62
2021/06/30 12:27:05;;;;;;;18.07;17.43;;;21.00;99.90;;;;;;4973208;28;20447;-58
2021/06/30 12:29:34;;;;;;;18.47;17.67;;;20.80;99.90;;;;;;4973257;28;20443;-60
2021/06/30 12:32:01;;;;;;;18.20;17.40;;;20.80;99.90;;;;;;4972773;28;20443;-60
2021/06/30 12:34:30;;;;;;;18.00;17.40;;;20.90;99.90;;;;;;4972909;28;20443;-62
2021/06/30 12:36:58;;;;;;;18.67;17.87;;;21.00;99.90;;;;;;4972868;28;20467;-60
2021/06/30 12:39:27;;;;;;;17.90;17.30;;;21.20;99.90;;;;;;4972895;28;20455;-60
2021/06/30 12:41:56;;;;;;;17.97;17.33;;;21.40;99.90;;;;;;4972475;28;20538;-62